createdAt,value
2023-05-24T00:07:10.060Z,4.2
2023-05-24T00:22:19.881Z,4.6
2023-05-24T00:37:29.015Z,3.9
2023-05-24T00:52:38.521Z,4.5
2023-05-24T01:07:48.061Z,4.5
2023-05-24T01:22:57.473Z,4.6
2023-05-24T01:38:06.786Z,4.9
2023-05-24T01:53:16.352Z,5.6
2023-05-24T02:08:25.734Z,6.2
2023-05-24T02:23:35.552Z,6
2023-05-24T02:38:46.108Z,7
2023-05-24T02:53:55.432Z,7.2
2023-05-24T03:09:05.265Z,6.1
2023-05-24T03:24:15.463Z,7.1
2023-05-24T03:39:25.138Z,7.2
2023-05-24T03:54:34.539Z,6.1
2023-05-24T04:09:46.223Z,6.2
2023-05-24T04:24:56.365Z,6.5
2023-05-24T04:40:06.739Z,7
2023-05-24T04:55:16.848Z,6.6
2023-05-24T05:10:27.076Z,6.9
2023-05-24T05:25:36.611Z,7.6
2023-05-24T05:40:46.421Z,8.2
2023-05-24T05:55:55.974Z,7.4
2023-05-24T06:11:05.699Z,6.4
2023-05-24T06:26:16.354Z,8
2023-05-24T06:41:26.873Z,7
2023-05-24T06:56:37.541Z,6.7
2023-05-24T07:11:47.704Z,7.6
2023-05-24T07:26:58.113Z,6.8
2023-05-24T07:42:08.252Z,6.9
2023-05-24T07:57:17.890Z,6.9
2023-05-24T08:12:28.180Z,7.5
2023-05-24T08:27:38.356Z,8
2023-05-24T08:42:47.678Z,7.3
2023-05-24T08:57:58.149Z,6.1
2023-05-24T09:13:08.164Z,7.1
2023-05-24T09:28:18.208Z,8.2
2023-05-24T09:43:28.136Z,9.1
2023-05-24T09:58:37.970Z,9.6
2023-05-24T10:13:47.795Z,8.4
2023-05-24T10:28:57.315Z,7.2
2023-05-24T10:44:10.441Z,8.4
2023-05-24T10:59:20.365Z,7.6
2023-05-24T11:14:29.775Z,9
2023-05-24T11:29:39.934Z,7.2
2023-05-24T11:44:49.810Z,7
2023-05-24T11:59:59.471Z,6.1
2023-05-24T12:15:08.717Z,6
2023-05-24T12:30:18.931Z,5.9
2023-05-24T12:45:29.676Z,5.5
2023-05-24T13:00:39.735Z,5.4
2023-05-24T13:15:50.469Z,5.5
2023-05-24T13:31:00.328Z,4.2
2023-05-24T13:46:12.606Z,6.5
2023-05-24T14:01:22.562Z,5.5
2023-05-24T14:16:32.695Z,5
2023-05-24T14:31:42.846Z,7.8
2023-05-24T14:46:55.757Z,7.4
2023-05-24T15:02:06.034Z,7.6
2023-05-24T15:17:17.290Z,8.5
2023-05-24T15:32:32.370Z,8.2
2023-05-24T15:47:41.970Z,7.1
2023-05-24T16:02:51.754Z,6.8
2023-05-24T16:18:02.530Z,6.6
2023-05-24T16:33:13.008Z,7.5
2023-05-24T16:48:23.500Z,6.6
2023-05-24T17:03:34.084Z,6.3
2023-05-24T17:18:45.593Z,7.1
2023-05-24T17:33:55.593Z,8.7
2023-05-24T17:49:05.239Z,10.5
2023-05-24T18:04:14.936Z,9.5
2023-05-24T18:19:24.369Z,8.8
2023-05-24T18:34:34.113Z,8.2
2023-05-24T18:49:43.353Z,7.4
2023-05-24T19:04:53.432Z,8
2023-05-24T19:20:03.454Z,8.1
2023-05-24T19:35:13.734Z,8.2
2023-05-24T19:50:24.072Z,9.7
2023-05-24T20:05:33.198Z,7.6
2023-05-24T20:20:46.926Z,9.1
2023-05-24T20:35:56.676Z,9.9
2023-05-24T20:51:06.319Z,8.7
2023-05-24T21:06:16.209Z,9.2
2023-05-24T21:21:25.982Z,8.8
2023-05-24T21:36:35.409Z,10.7
2023-05-24T21:51:45.475Z,10
2023-05-24T22:06:54.711Z,10.6
2023-05-24T22:22:04.277Z,10.1
2023-05-24T22:37:13.859Z,10.6
2023-05-24T22:52:23.617Z,10.8
2023-05-24T23:07:33.434Z,11.3
2023-05-24T23:22:43.250Z,10
2023-05-24T23:37:53.093Z,11.8
2023-05-24T23:53:02.503Z,11.3
